createdAt,value
2018-06-24T00:00:30.678Z,55.53
2018-06-24T00:01:31.153Z,55.62
2018-06-24T00:02:31.628Z,55.73
2018-06-24T00:03:32.100Z,55.73
2018-06-24T00:04:32.579Z,55.64
2018-06-24T00:05:33.047Z,55.73
2018-06-24T00:06:33.524Z,55.61
2018-06-24T00:07:33.995Z,55.67
2018-06-24T00:08:34.471Z,55.72
2018-06-24T00:09:34.947Z,55.72
2018-06-24T00:10:35.472Z,55.81
2018-06-24T00:11:35.897Z,55.89
2018-06-24T00:12:36.366Z,55.95
2018-06-24T00:13:36.840Z,56.01
2018-06-24T00:14:37.313Z,55.97
2018-06-24T00:15:37.787Z,56.00
2018-06-24T00:16:38.263Z,56.00
2018-06-24T00:17:38.733Z,56.00
2018-06-24T00:18:39.210Z,56.00
2018-06-24T00:19:39.682Z,56.00
2018-06-24T00:20:40.206Z,55.93
2018-06-24T00:21:40.625Z,55.79
2018-06-24T00:22:41.098Z,55.90
2018-06-24T00:23:41.572Z,55.81
2018-06-24T00:24:42.043Z,55.87
2018-06-24T00:25:42.516Z,55.78
2018-06-24T00:26:42.986Z,55.84
2018-06-24T00:27:43.459Z,55.84
2018-06-24T00:28:43.929Z,55.95
2018-06-24T00:29:44.400Z,56.04
2018-06-24T00:30:44.872Z,55.89
2018-06-24T00:31:45.342Z,55.83
2018-06-24T00:32:45.817Z,55.97
2018-06-24T00:33:46.285Z,55.95
2018-06-24T00:34:46.757Z,56.00
2018-06-24T00:35:47.225Z,55.82
2018-06-24T00:36:47.696Z,55.79
2018-06-24T00:37:48.164Z,55.88
2018-06-24T00:38:48.637Z,55.82
2018-06-24T00:39:49.107Z,55.85
2018-06-24T00:40:49.579Z,55.91
2018-06-24T00:41:50.047Z,55.90
2018-06-24T00:42:50.518Z,55.84
2018-06-24T00:43:50.987Z,55.84
2018-06-24T00:44:51.464Z,55.87
2018-06-24T00:45:51.929Z,55.89
2018-06-24T00:46:52.400Z,55.92
2018-06-24T00:47:52.869Z,56.01
2018-06-24T00:48:53.340Z,56.00
2018-06-24T00:49:53.810Z,56.09
2018-06-24T00:50:54.282Z,56.12
2018-06-24T00:51:54.754Z,56.12
2018-06-24T00:52:55.224Z,56.20
2018-06-24T00:53:55.694Z,56.26
2018-06-24T00:54:56.166Z,56.32
2018-06-24T00:55:56.639Z,56.26
2018-06-24T00:56:57.109Z,56.28
2018-06-24T00:57:57.580Z,56.40
2018-06-24T00:58:58.052Z,56.37
2018-06-24T00:59:58.527Z,56.45
2018-06-24T01:00:58.996Z,56.57
2018-06-24T01:01:59.468Z,56.68
2018-06-24T01:02:59.941Z,56.56
2018-06-24T01:04:00.413Z,56.62
2018-06-24T01:05:00.887Z,56.62
2018-06-24T01:06:01.358Z,56.70
2018-06-24T01:07:01.830Z,56.67
2018-06-24T01:08:02.305Z,56.53
2018-06-24T01:09:02.779Z,56.70
2018-06-24T01:10:03.249Z,56.67
2018-06-24T01:11:03.723Z,56.69
2018-06-24T01:12:04.196Z,56.78
2018-06-24T01:13:04.668Z,56.84
2018-06-24T01:14:05.144Z,56.92
2018-06-24T01:15:05.616Z,56.98
2018-06-24T01:16:06.140Z,56.97
2018-06-24T01:17:06.565Z,57.06
2018-06-24T01:18:07.036Z,57.17
2018-06-24T01:19:07.512Z,57.11
2018-06-24T01:20:07.984Z,57.11
2018-06-24T01:21:08.460Z,57.17
2018-06-24T01:22:08.932Z,57.28
2018-06-24T01:23:09.406Z,57.28
2018-06-24T01:24:09.880Z,57.28
2018-06-24T01:25:10.357Z,57.31
2018-06-24T01:26:10.827Z,57.30
2018-06-24T01:27:11.306Z,57.27
2018-06-24T01:28:11.777Z,57.33
2018-06-24T01:29:12.250Z,57.27
2018-06-24T01:30:12.725Z,57.24
2018-06-24T01:31:13.199Z,57.15
2018-06-24T01:32:13.674Z,57.15
2018-06-24T01:33:14.145Z,57.03
2018-06-24T01:34:14.616Z,57.12
2018-06-24T01:35:15.090Z,57.11
2018-06-24T01:36:15.563Z,57.11
2018-06-24T01:37:16.037Z,57.20
2018-06-24T01:38:16.508Z,57.23
2018-06-24T01:39:16.979Z,57.20
2018-06-24T01:40:17.451Z,57.25
2018-06-24T01:41:17.922Z,57.40
2018-06-24T01:42:18.399Z,57.57
2018-06-24T01:43:18.864Z,57.68
2018-06-24T01:44:19.342Z,57.59
2018-06-24T01:45:19.808Z,57.76
2018-06-24T01:46:20.281Z,57.79
2018-06-24T01:47:20.748Z,57.76
2018-06-24T01:48:21.220Z,57.62
2018-06-24T01:49:21.689Z,57.62
2018-06-24T01:50:22.161Z,57.58
2018-06-24T01:51:22.631Z,57.61
2018-06-24T01:52:23.101Z,57.61
2018-06-24T01:53:23.571Z,57.66
2018-06-24T01:54:24.041Z,57.75
2018-06-24T01:55:24.510Z,57.75
2018-06-24T01:56:24.984Z,57.69
2018-06-24T01:57:25.451Z,57.63
2018-06-24T01:58:25.924Z,57.63
2018-06-24T01:59:26.392Z,57.69
2018-06-24T02:00:26.864Z,57.57
2018-06-24T02:01:27.334Z,57.62
2018-06-24T02:02:27.802Z,57.62
2018-06-24T02:03:28.275Z,57.76
2018-06-24T02:04:28.746Z,57.82
2018-06-24T02:05:29.219Z,57.85
2018-06-24T02:06:29.686Z,57.79
2018-06-24T02:07:30.157Z,57.84
2018-06-24T02:08:30.629Z,57.81
2018-06-24T02:09:31.100Z,58.01
2018-06-24T02:10:31.570Z,58.07
2018-06-24T02:11:32.045Z,57.89
2018-06-24T02:12:32.518Z,57.92
2018-06-24T02:13:32.986Z,57.95
2018-06-24T02:14:33.458Z,57.95
2018-06-24T02:15:33.928Z,57.97
2018-06-24T02:16:34.404Z,57.97
2018-06-24T02:17:34.873Z,58.06
2018-06-24T02:18:35.347Z,58.17
2018-06-24T02:19:35.817Z,58.29
2018-06-24T02:20:36.289Z,58.28
2018-06-24T02:21:36.763Z,58.28
2018-06-24T02:22:37.235Z,58.25
2018-06-24T02:23:37.708Z,58.22
2018-06-24T02:24:38.179Z,58.30
2018-06-24T02:25:38.654Z,58.38
2018-06-24T02:26:39.125Z,58.33
2018-06-24T02:27:39.600Z,58.35
2018-06-24T02:28:40.075Z,58.27
2018-06-24T02:29:40.545Z,58.43
2018-06-24T02:30:41.022Z,58.49
2018-06-24T02:31:41.493Z,58.52
2018-06-24T02:32:41.965Z,58.49
2018-06-24T02:33:42.440Z,58.46
2018-06-24T02:34:42.912Z,58.48
2018-06-24T02:35:43.387Z,58.43
2018-06-24T02:36:43.861Z,58.48
2018-06-24T02:37:44.334Z,58.42
2018-06-24T02:38:44.813Z,58.62
2018-06-24T02:39:45.284Z,58.62
2018-06-24T02:40:45.757Z,58.59
2018-06-24T02:41:46.235Z,58.56
2018-06-24T02:42:46.704Z,58.67
2018-06-24T02:43:47.179Z,58.76
2018-06-24T02:44:47.653Z,58.81
2018-06-24T02:45:48.132Z,58.86
2018-06-24T02:46:48.600Z,58.98
2018-06-24T02:47:49.075Z,58.97
2018-06-24T02:48:49.547Z,59.00
2018-06-24T02:49:50.019Z,59.09
2018-06-24T02:50:50.492Z,59.00
2018-06-24T02:51:50.963Z,59.14
2018-06-24T02:52:51.907Z,59.08
2018-06-24T02:53:51.908Z,59.11
2018-06-24T02:54:52.380Z,59.16
2018-06-24T02:55:52.851Z,59.16
2018-06-24T02:56:53.324Z,59.16
2018-06-24T02:57:53.801Z,59.25
2018-06-24T02:58:54.267Z,59.27
2018-06-24T02:59:54.741Z,59.33
2018-06-24T03:00:55.209Z,59.30
2018-06-24T03:01:55.680Z,59.29
2018-06-24T03:02:56.148Z,59.29
2018-06-24T03:03:56.621Z,59.40
2018-06-24T03:04:57.091Z,59.52
2018-06-24T03:05:57.561Z,59.49
2018-06-24T03:06:58.031Z,59.54
2018-06-24T03:07:58.543Z,59.63
2018-06-24T03:08:58.972Z,59.74
2018-06-24T03:09:59.445Z,59.76
2018-06-24T03:10:59.911Z,59.71
2018-06-24T03:12:00.381Z,59.79
2018-06-24T03:13:00.853Z,59.85
2018-06-24T03:14:01.326Z,59.73
2018-06-24T03:15:01.793Z,59.90
2018-06-24T03:16:02.262Z,59.90
2018-06-24T03:17:02.738Z,59.98
2018-06-24T03:18:03.204Z,60.07
2018-06-24T03:19:03.674Z,60.15
2018-06-24T03:20:04.144Z,60.12
2018-06-24T03:21:04.616Z,60.04
2018-06-24T03:22:05.136Z,60.03
2018-06-24T03:23:05.556Z,60.12
2018-06-24T03:24:06.031Z,60.18
2018-06-24T03:25:06.502Z,60.23
2018-06-24T03:26:06.969Z,60.23
2018-06-24T03:27:07.439Z,60.40
2018-06-24T03:28:07.911Z,60.39
2018-06-24T03:29:08.383Z,60.42
2018-06-24T03:30:08.856Z,60.56
2018-06-24T03:31:09.327Z,60.67
2018-06-24T03:32:09.795Z,60.64
2018-06-24T03:33:10.268Z,60.73
2018-06-24T03:34:10.745Z,60.59
2018-06-24T03:35:11.212Z,60.73
2018-06-24T03:36:11.685Z,60.84
2018-06-24T03:37:12.157Z,60.78
2018-06-24T03:38:12.627Z,60.80
2018-06-24T03:39:13.100Z,61.05
2018-06-24T03:40:13.572Z,61.00
2018-06-24T03:41:14.048Z,61.00
2018-06-24T03:42:14.517Z,61.03
2018-06-24T03:43:14.989Z,61.03
2018-06-24T03:44:15.464Z,61.17
2018-06-24T03:45:15.935Z,61.19
2018-06-24T03:46:16.409Z,61.16
2018-06-24T03:47:16.889Z,61.27
2018-06-24T03:48:17.353Z,61.30
2018-06-24T03:49:17.828Z,61.36
2018-06-24T03:50:18.302Z,61.39
2018-06-24T03:51:18.775Z,61.33
2018-06-24T03:52:19.247Z,61.47
2018-06-24T03:53:19.720Z,61.47
2018-06-24T03:54:20.194Z,61.49
2018-06-24T03:55:20.668Z,61.66
2018-06-24T03:56:21.142Z,61.60
2018-06-24T03:57:21.615Z,61.58
2018-06-24T03:58:22.089Z,61.63
2018-06-24T03:59:22.563Z,61.60
2018-06-24T04:00:23.037Z,61.66
2018-06-24T04:01:23.510Z,61.68
2018-06-24T04:02:23.986Z,61.65
2018-06-24T04:03:24.459Z,61.63
2018-06-24T04:04:24.966Z,61.77
2018-06-24T04:05:25.406Z,61.71
2018-06-24T04:06:25.881Z,61.65
2018-06-24T04:07:26.355Z,61.65
2018-06-24T04:08:26.826Z,61.65
2018-06-24T04:09:27.301Z,62.01
2018-06-24T04:10:27.778Z,61.85
2018-06-24T04:11:28.247Z,61.93
2018-06-24T04:12:28.720Z,61.96
2018-06-24T04:13:29.231Z,61.99
2018-06-24T04:14:29.668Z,61.79
2018-06-24T04:15:30.139Z,61.73
2018-06-24T04:16:30.611Z,61.79
2018-06-24T04:17:31.084Z,61.84
2018-06-24T04:18:31.560Z,61.84
2018-06-24T04:19:32.029Z,61.98
2018-06-24T04:20:32.498Z,61.90
2018-06-24T04:21:32.970Z,61.95
2018-06-24T04:22:33.440Z,61.87
2018-06-24T04:23:33.912Z,61.96
2018-06-24T04:24:34.384Z,61.98
2018-06-24T04:25:34.854Z,62.06
2018-06-24T04:26:35.325Z,62.01
2018-06-24T04:27:35.793Z,62.09
2018-06-24T04:28:36.265Z,62.17
2018-06-24T04:29:36.786Z,62.14
2018-06-24T04:30:37.208Z,62.34
2018-06-24T04:31:37.674Z,62.53
2018-06-24T04:32:38.145Z,62.34
2018-06-24T04:33:38.617Z,62.25
2018-06-24T04:34:39.092Z,62.22
2018-06-24T04:35:39.557Z,62.25
2018-06-24T04:36:40.092Z,62.50
2018-06-24T04:37:40.498Z,62.36
2018-06-24T04:38:40.968Z,62.47
2018-06-24T04:39:41.440Z,62.58
2018-06-24T04:40:41.909Z,62.50
2018-06-24T04:41:42.395Z,62.55
2018-06-24T04:42:42.852Z,62.66
2018-06-24T04:43:43.319Z,62.69
2018-06-24T04:44:43.790Z,62.72
2018-06-24T04:45:44.262Z,62.64
2018-06-24T04:46:44.733Z,62.63
2018-06-24T04:47:45.204Z,62.69
2018-06-24T04:48:45.680Z,62.69
2018-06-24T04:49:46.149Z,62.71
2018-06-24T04:50:46.620Z,62.71
2018-06-24T04:51:47.183Z,62.71
2018-06-24T04:52:47.564Z,62.96
2018-06-24T04:53:48.034Z,62.80
2018-06-24T04:54:48.505Z,62.91
2018-06-24T04:55:48.975Z,62.88
2018-06-24T04:56:49.447Z,62.91
2018-06-24T04:57:49.919Z,62.93
2018-06-24T04:58:50.392Z,62.91
2018-06-24T04:59:50.864Z,62.90
2018-06-24T05:00:51.339Z,62.80
2018-06-24T05:01:51.811Z,62.88
2018-06-24T05:02:52.285Z,62.96
2018-06-24T05:03:52.756Z,62.91
2018-06-24T05:04:53.227Z,62.82
2018-06-24T05:05:53.701Z,62.79
2018-06-24T05:06:54.174Z,62.71
2018-06-24T05:07:54.645Z,62.71
2018-06-24T05:08:55.118Z,62.74
2018-06-24T05:09:55.594Z,62.68
2018-06-24T05:10:56.102Z,62.68
2018-06-24T05:11:56.538Z,62.66
2018-06-24T05:12:57.012Z,62.65
2018-06-24T05:13:57.485Z,62.74
2018-06-24T05:14:57.963Z,62.68
2018-06-24T05:15:58.432Z,62.68
2018-06-24T05:16:58.908Z,62.63
2018-06-24T05:17:59.380Z,62.71
2018-06-24T05:18:59.855Z,62.71
2018-06-24T05:20:00.327Z,62.85
2018-06-24T05:21:00.801Z,62.88
2018-06-24T05:22:01.276Z,62.93
2018-06-24T05:23:01.751Z,63.10
2018-06-24T05:24:02.223Z,63.07
2018-06-24T05:25:02.700Z,63.18
2018-06-24T05:26:03.177Z,63.23
2018-06-24T05:27:03.649Z,63.37
2018-06-24T05:28:04.119Z,63.23
2018-06-24T05:29:04.596Z,63.32
2018-06-24T05:30:05.069Z,63.38
2018-06-24T05:31:05.543Z,63.38
2018-06-24T05:32:06.015Z,63.27
2018-06-24T05:33:06.491Z,63.29
2018-06-24T05:34:06.960Z,63.27
2018-06-24T05:35:07.433Z,63.35
2018-06-24T05:36:07.906Z,63.40
2018-06-24T05:37:08.377Z,63.38
2018-06-24T05:38:08.851Z,63.40
2018-06-24T05:39:09.323Z,63.43
2018-06-24T05:40:09.793Z,63.35
2018-06-24T05:41:10.268Z,63.41
2018-06-24T05:42:10.737Z,63.54
2018-06-24T05:43:11.231Z,63.49
2018-06-24T05:44:11.681Z,63.43
2018-06-24T05:45:12.154Z,63.41
2018-06-24T05:46:12.621Z,63.49
2018-06-24T05:47:13.094Z,63.41
2018-06-24T05:48:13.613Z,63.46
2018-06-24T05:49:14.037Z,63.32
2018-06-24T05:50:14.508Z,63.35
2018-06-24T05:51:14.974Z,63.43
2018-06-24T05:52:15.446Z,63.38
2018-06-24T05:53:15.966Z,63.38
2018-06-24T05:54:16.602Z,63.38
2018-06-24T05:55:16.856Z,63.49
2018-06-24T05:56:17.323Z,63.57
2018-06-24T05:57:17.797Z,63.58
2018-06-24T05:58:18.265Z,63.52
2018-06-24T05:59:18.739Z,63.41
2018-06-24T06:00:19.210Z,63.47
2018-06-24T06:01:19.678Z,63.52
2018-06-24T06:02:20.149Z,63.44
2018-06-24T06:03:20.619Z,63.41
2018-06-24T06:04:21.088Z,63.49
2018-06-24T06:05:21.560Z,63.41
2018-06-24T06:06:22.031Z,63.41
2018-06-24T06:07:22.505Z,63.41
2018-06-24T06:08:22.972Z,63.45
2018-06-24T06:09:23.443Z,63.50
2018-06-24T06:10:23.970Z,63.50
2018-06-24T06:11:24.386Z,63.47
2018-06-24T06:12:24.859Z,63.52
2018-06-24T06:13:25.329Z,63.33
2018-06-24T06:14:25.801Z,63.53
2018-06-24T06:15:26.273Z,63.58
2018-06-24T06:16:26.745Z,63.67
2018-06-24T06:17:27.216Z,63.58
2018-06-24T06:18:27.687Z,63.47
2018-06-24T06:19:28.160Z,63.37
2018-06-24T06:20:28.631Z,63.34
2018-06-24T06:21:29.105Z,63.45
2018-06-24T06:22:29.576Z,63.40
2018-06-24T06:23:30.054Z,63.37
2018-06-24T06:24:30.522Z,63.38
2018-06-24T06:25:30.994Z,63.35
2018-06-24T06:26:31.469Z,63.38
2018-06-24T06:27:31.943Z,63.41
2018-06-24T06:28:32.415Z,63.38
2018-06-24T06:29:32.887Z,63.33
2018-06-24T06:30:33.363Z,63.25
2018-06-24T06:31:33.836Z,63.20
2018-06-24T06:32:34.312Z,63.23
2018-06-24T06:33:34.783Z,63.12
2018-06-24T06:34:35.258Z,63.07
2018-06-24T06:35:35.729Z,63.04
2018-06-24T06:36:36.236Z,62.96
2018-06-24T06:37:36.676Z,63.02
2018-06-24T06:38:37.151Z,62.91
2018-06-24T06:39:37.630Z,62.83
2018-06-24T06:40:38.100Z,62.75
2018-06-24T06:41:38.573Z,62.73
2018-06-24T06:42:39.048Z,62.68
2018-06-24T06:43:39.522Z,62.65
2018-06-24T06:44:39.997Z,62.63
2018-06-24T06:45:40.593Z,62.55
2018-06-24T06:46:40.947Z,62.52
2018-06-24T06:47:41.418Z,62.50
2018-06-24T06:48:41.893Z,62.39
2018-06-24T06:49:42.368Z,62.26
2018-06-24T06:50:42.842Z,62.34
2018-06-24T06:51:43.315Z,62.35
2018-06-24T06:52:43.787Z,62.27
2018-06-24T06:53:44.269Z,62.27
2018-06-24T06:54:44.737Z,62.22
2018-06-24T06:55:45.209Z,62.11
2018-06-24T06:56:45.685Z,62.11
2018-06-24T06:57:46.199Z,62.14
2018-06-24T06:58:46.626Z,62.06
2018-06-24T06:59:47.098Z,61.98
2018-06-24T07:00:47.569Z,61.98
2018-06-24T07:01:48.043Z,61.85
2018-06-24T07:02:48.516Z,61.83
2018-06-24T07:03:48.987Z,61.77
2018-06-24T07:04:49.462Z,61.72
2018-06-24T07:05:49.971Z,61.73
2018-06-24T07:06:50.401Z,61.67
2018-06-24T07:07:50.874Z,61.56
2018-06-24T07:08:51.341Z,61.65
2018-06-24T07:09:51.814Z,61.52
2018-06-24T07:10:52.283Z,61.66
2018-06-24T07:11:52.755Z,61.64
2018-06-24T07:12:53.224Z,61.56
2018-06-24T07:13:53.695Z,61.48
2018-06-24T07:14:54.168Z,61.40
2018-06-24T07:15:54.638Z,61.37
2018-06-24T07:16:55.110Z,61.30
2018-06-24T07:17:55.583Z,61.33
2018-06-24T07:18:56.051Z,61.39
2018-06-24T07:19:56.521Z,61.31
2018-06-24T07:20:56.992Z,61.23
2018-06-24T07:21:57.464Z,61.18
2018-06-24T07:22:57.933Z,61.10
2018-06-24T07:23:58.404Z,61.11
2018-06-24T07:24:58.876Z,61.11
2018-06-24T07:25:59.349Z,61.06
2018-06-24T07:26:59.821Z,60.87
2018-06-24T07:28:00.292Z,60.85
2018-06-24T07:29:00.765Z,60.83
2018-06-24T07:30:01.237Z,60.78
2018-06-24T07:31:01.718Z,60.78
2018-06-24T07:32:02.181Z,60.71
2018-06-24T07:33:02.667Z,60.66
2018-06-24T07:34:03.126Z,60.63
2018-06-24T07:35:03.597Z,60.61
2018-06-24T07:36:04.072Z,60.62
2018-06-24T07:37:04.543Z,60.66
2018-06-24T07:38:05.017Z,60.67
2018-06-24T07:39:05.596Z,60.68
2018-06-24T07:40:05.965Z,60.65
2018-06-24T07:41:06.440Z,60.55
2018-06-24T07:42:06.911Z,60.53
2018-06-24T07:43:07.385Z,60.51
2018-06-24T07:44:07.909Z,60.50
2018-06-24T07:45:08.334Z,60.42
2018-06-24T07:46:08.810Z,60.35
2018-06-24T07:47:09.287Z,60.33
2018-06-24T07:48:09.762Z,60.22
2018-06-24T07:49:10.230Z,60.09
2018-06-24T07:50:10.718Z,59.96
2018-06-24T07:51:11.182Z,59.88
2018-06-24T07:52:11.657Z,59.87
2018-06-24T07:53:12.132Z,59.76
2018-06-24T07:54:12.607Z,59.66
2018-06-24T07:55:13.081Z,59.58
2018-06-24T07:56:13.557Z,59.48
2018-06-24T07:57:14.029Z,59.43
2018-06-24T07:58:14.503Z,59.35
2018-06-24T07:59:14.980Z,59.19
2018-06-24T08:00:15.456Z,59.11
2018-06-24T08:01:15.930Z,59.04
2018-06-24T08:02:16.403Z,58.90
2018-06-24T08:03:16.894Z,58.82
2018-06-24T08:04:17.352Z,58.80
2018-06-24T08:05:17.880Z,58.79
2018-06-24T08:06:18.297Z,58.77
2018-06-24T08:07:18.772Z,58.72
2018-06-24T08:08:19.249Z,58.67
2018-06-24T08:09:19.717Z,58.62
2018-06-24T08:10:20.190Z,58.48
2018-06-24T08:11:20.717Z,58.47
2018-06-24T08:12:21.135Z,58.36
2018-06-24T08:13:21.608Z,58.31
2018-06-24T08:14:22.083Z,58.26
2018-06-24T08:15:22.554Z,58.22
2018-06-24T08:16:23.079Z,58.17
2018-06-24T08:17:23.495Z,58.09
2018-06-24T08:18:23.969Z,58.01
2018-06-24T08:19:24.442Z,57.96
2018-06-24T08:20:24.913Z,57.88
2018-06-24T08:21:25.387Z,57.89
2018-06-24T08:22:25.856Z,57.85
2018-06-24T08:23:26.326Z,57.85
2018-06-24T08:24:26.848Z,57.81
2018-06-24T08:25:27.269Z,57.79
2018-06-24T08:26:27.742Z,57.68
2018-06-24T08:27:28.217Z,57.72
2018-06-24T08:28:28.683Z,57.67
2018-06-24T08:29:29.154Z,57.62
2018-06-24T08:30:29.631Z,57.57
2018-06-24T08:31:30.104Z,57.55
2018-06-24T08:32:30.570Z,57.53
2018-06-24T08:33:31.041Z,57.49
2018-06-24T08:34:31.513Z,57.49
2018-06-24T08:35:31.987Z,57.41
2018-06-24T08:36:32.460Z,57.34
2018-06-24T08:37:32.934Z,57.35
2018-06-24T08:38:33.405Z,57.24
2018-06-24T08:39:33.875Z,57.22
2018-06-24T08:40:34.349Z,57.05
2018-06-24T08:41:34.827Z,57.06
2018-06-24T08:42:35.295Z,56.96
2018-06-24T08:43:35.769Z,56.73
2018-06-24T08:44:36.242Z,56.92
2018-06-24T08:45:36.715Z,56.67
2018-06-24T08:46:37.393Z,56.59
2018-06-24T08:47:37.664Z,56.55
2018-06-24T08:48:38.144Z,56.35
2018-06-24T08:49:38.612Z,56.13
2018-06-24T08:50:39.089Z,56.05
2018-06-24T08:51:39.562Z,56.01
2018-06-24T08:52:40.040Z,55.85
2018-06-24T08:53:40.514Z,55.54
2018-06-24T08:54:41.039Z,55.22
2018-06-24T08:55:41.468Z,55.09
2018-06-24T08:56:41.941Z,54.96
2018-06-24T08:57:42.618Z,54.73
2018-06-24T08:58:42.891Z,54.36
2018-06-24T08:59:43.368Z,54.19
2018-06-24T09:00:43.970Z,54.03
2018-06-24T09:01:44.320Z,53.89
2018-06-24T09:02:44.793Z,53.64
2018-06-24T09:03:45.268Z,53.47
2018-06-24T09:04:45.745Z,53.09
2018-06-24T09:05:46.220Z,52.96
2018-06-24T09:06:46.695Z,52.79
2018-06-24T09:07:47.170Z,52.56
2018-06-24T09:08:47.646Z,52.23
2018-06-24T09:09:48.119Z,52.06
2018-06-24T09:10:48.596Z,51.80
2018-06-24T09:11:49.075Z,51.78
2018-06-24T09:12:49.546Z,51.85
2018-06-24T09:13:50.021Z,51.74
2018-06-24T09:14:50.541Z,51.68
2018-06-24T09:15:51.000Z,51.60
2018-06-24T09:16:51.443Z,51.33
2018-06-24T09:17:51.917Z,51.22
2018-06-24T09:18:52.406Z,51.16
2018-06-24T09:19:52.867Z,51.05
2018-06-24T09:20:53.339Z,50.99
2018-06-24T09:21:53.817Z,50.90
2018-06-24T09:22:54.286Z,50.88
2018-06-24T09:23:54.759Z,51.04
2018-06-24T09:24:55.235Z,51.14
2018-06-24T09:25:55.705Z,50.98
2018-06-24T09:26:56.179Z,50.80
2018-06-24T09:27:56.652Z,50.90
2018-06-24T09:28:57.124Z,50.72
2018-06-24T09:29:57.596Z,50.72
2018-06-24T09:30:58.071Z,51.03
2018-06-24T09:31:58.542Z,51.09
2018-06-24T09:32:59.015Z,50.94
2018-06-24T09:33:59.487Z,51.13
2018-06-24T09:35:00.011Z,50.92
2018-06-24T09:36:00.431Z,51.23
2018-06-24T09:37:00.906Z,50.95
2018-06-24T09:38:01.374Z,51.11
2018-06-24T09:39:01.849Z,51.11
2018-06-24T09:40:02.371Z,51.17
2018-06-24T09:41:02.820Z,51.12
2018-06-24T09:42:03.268Z,51.24
2018-06-24T09:43:03.736Z,51.31
2018-06-24T09:44:04.209Z,51.31
2018-06-24T09:45:04.680Z,51.13
2018-06-24T09:46:05.151Z,51.25
2018-06-24T09:47:05.623Z,51.50
2018-06-24T09:48:06.097Z,51.53
2018-06-24T09:49:06.568Z,51.47
2018-06-24T09:50:07.042Z,51.38
2018-06-24T09:51:07.512Z,50.95
2018-06-24T09:52:07.986Z,51.72
2018-06-24T09:53:08.463Z,51.38
2018-06-24T09:54:08.932Z,51.26
2018-06-24T09:55:09.456Z,51.60
2018-06-24T09:56:09.880Z,51.13
2018-06-24T09:57:10.353Z,50.92
2018-06-24T09:58:10.827Z,51.54
2018-06-24T09:59:11.301Z,51.72
2018-06-24T10:00:11.775Z,51.72
2018-06-24T10:01:12.250Z,51.54
2018-06-24T10:02:12.725Z,51.29
2018-06-24T10:03:13.200Z,51.70
2018-06-24T10:04:13.675Z,51.60
2018-06-24T10:05:14.150Z,51.67
2018-06-24T10:06:14.626Z,51.70
2018-06-24T10:07:15.106Z,51.70
2018-06-24T10:08:15.580Z,51.46
2018-06-24T10:09:16.057Z,51.52
2018-06-24T10:10:16.528Z,51.71
2018-06-24T10:11:17.004Z,51.22
2018-06-24T10:12:17.481Z,50.57
2018-06-24T10:13:17.957Z,50.70
2018-06-24T10:14:18.433Z,51.53
2018-06-24T10:15:18.908Z,50.95
2018-06-24T10:16:19.385Z,51.39
2018-06-24T10:17:19.929Z,50.86
2018-06-24T10:18:20.339Z,50.43
2018-06-24T10:19:20.813Z,50.93
2018-06-24T10:20:21.289Z,51.15
2018-06-24T10:21:21.766Z,51.16
2018-06-24T10:22:22.240Z,51.04
2018-06-24T10:23:22.715Z,50.48
2018-06-24T10:24:23.190Z,50.92
2018-06-24T10:25:23.667Z,51.07
2018-06-24T10:26:24.140Z,50.95
2018-06-24T10:27:24.619Z,50.92
2018-06-24T10:28:25.095Z,50.92
2018-06-24T10:29:25.583Z,50.77
2018-06-24T10:30:26.092Z,49.71
2018-06-24T10:31:26.522Z,50.15
2018-06-24T10:32:26.993Z,50.68
2018-06-24T10:33:27.466Z,50.78
2018-06-24T10:34:27.943Z,50.71
2018-06-24T10:35:28.414Z,50.25
2018-06-24T10:36:28.952Z,50.16
2018-06-24T10:37:29.363Z,50.66
2018-06-24T10:38:29.838Z,50.47
2018-06-24T10:39:30.309Z,50.60
2018-06-24T10:40:30.835Z,50.54
2018-06-24T10:41:31.259Z,50.48
2018-06-24T10:42:31.731Z,50.05
2018-06-24T10:43:32.206Z,49.86
2018-06-24T10:44:32.680Z,49.96
2018-06-24T10:45:33.155Z,50.46
2018-06-24T10:46:33.628Z,50.62
2018-06-24T10:47:34.101Z,50.03
2018-06-24T10:48:34.571Z,50.25
2018-06-24T10:49:35.048Z,49.63
2018-06-24T10:50:35.519Z,49.75
2018-06-24T10:51:35.992Z,50.23
2018-06-24T10:52:36.464Z,50.45
2018-06-24T10:53:36.936Z,50.01
2018-06-24T10:54:37.409Z,50.02
2018-06-24T10:55:37.932Z,50.21
2018-06-24T10:56:38.356Z,50.18
2018-06-24T10:57:38.831Z,50.15
2018-06-24T10:58:39.298Z,50.03
2018-06-24T10:59:39.771Z,49.93
2018-06-24T11:00:40.246Z,49.37
2018-06-24T11:01:40.717Z,48.75
2018-06-24T11:02:41.188Z,49.47
2018-06-24T11:03:41.660Z,49.48
2018-06-24T11:04:42.135Z,49.79
2018-06-24T11:05:42.606Z,49.98
2018-06-24T11:06:43.077Z,49.86
2018-06-24T11:07:43.549Z,49.83
2018-06-24T11:08:44.021Z,49.36
2018-06-24T11:09:44.548Z,49.36
2018-06-24T11:10:45.015Z,49.36
2018-06-24T11:11:45.436Z,49.49
2018-06-24T11:12:45.907Z,49.84
2018-06-24T11:13:46.380Z,50.03
2018-06-24T11:14:46.852Z,50.00
2018-06-24T11:15:47.374Z,49.85
2018-06-24T11:16:47.797Z,50.00
2018-06-24T11:17:48.270Z,49.88
2018-06-24T11:18:48.739Z,49.76
2018-06-24T11:19:49.211Z,50.01
2018-06-24T11:20:49.682Z,49.76
2018-06-24T11:21:50.159Z,49.39
2018-06-24T11:22:50.627Z,49.83
2018-06-24T11:23:51.098Z,49.95
2018-06-24T11:24:51.572Z,49.86
2018-06-24T11:25:52.043Z,49.64
2018-06-24T11:26:52.515Z,49.65
2018-06-24T11:27:52.990Z,49.84
2018-06-24T11:28:53.461Z,49.90
2018-06-24T11:29:53.936Z,49.62
2018-06-24T11:30:54.462Z,49.62
2018-06-24T11:31:54.884Z,49.72
2018-06-24T11:32:55.357Z,49.66
2018-06-24T11:33:55.833Z,49.75
2018-06-24T11:34:56.304Z,49.75
2018-06-24T11:35:56.781Z,49.72
2018-06-24T11:36:57.309Z,49.60
2018-06-24T11:37:57.734Z,49.10
2018-06-24T11:38:58.206Z,49.10
2018-06-24T11:39:58.684Z,49.42
2018-06-24T11:40:59.158Z,49.64
2018-06-24T11:41:59.635Z,49.73
2018-06-24T11:43:00.109Z,49.61
2018-06-24T11:44:00.584Z,49.48
2018-06-24T11:45:01.061Z,49.64
2018-06-24T11:46:01.588Z,49.70
2018-06-24T11:47:02.014Z,49.64
2018-06-24T11:48:02.490Z,49.61
2018-06-24T11:49:02.965Z,49.61
2018-06-24T11:50:03.445Z,48.92
2018-06-24T11:51:03.919Z,48.86
2018-06-24T11:52:04.394Z,49.30
2018-06-24T11:53:04.873Z,49.17
2018-06-24T11:54:05.350Z,49.33
2018-06-24T11:55:05.822Z,49.58
2018-06-24T11:56:06.298Z,49.61
2018-06-24T11:57:06.779Z,49.74
2018-06-24T11:58:07.250Z,49.71
2018-06-24T11:59:07.728Z,49.68
2018-06-24T12:00:08.202Z,49.77
2018-06-24T12:01:08.677Z,49.84
2018-06-24T12:02:09.155Z,49.87
2018-06-24T12:03:09.627Z,49.94
2018-06-24T12:04:10.140Z,49.87
2018-06-24T12:05:10.581Z,49.94
2018-06-24T12:06:11.059Z,49.94
2018-06-24T12:07:11.529Z,49.81
2018-06-24T12:08:12.005Z,49.85
2018-06-24T12:09:12.481Z,49.85
2018-06-24T12:10:12.959Z,49.88
2018-06-24T12:11:13.478Z,49.76
2018-06-24T12:12:13.903Z,48.78
2018-06-24T12:13:14.380Z,49.38
2018-06-24T12:14:14.852Z,49.57
2018-06-24T12:15:15.328Z,49.29
2018-06-24T12:16:15.800Z,49.26
2018-06-24T12:17:16.274Z,49.39
2018-06-24T12:18:16.820Z,49.73
2018-06-24T12:19:17.224Z,49.23
2018-06-24T12:20:17.703Z,49.39
2018-06-24T12:21:18.222Z,48.47
2018-06-24T12:22:18.648Z,48.45
2018-06-24T12:23:19.119Z,48.70
2018-06-24T12:24:19.593Z,48.92
2018-06-24T12:25:20.067Z,49.33
2018-06-24T12:26:20.539Z,49.43
2018-06-24T12:27:21.012Z,49.24
2018-06-24T12:28:21.487Z,48.93
2018-06-24T12:29:21.961Z,48.68
2018-06-24T12:30:22.434Z,48.75
2018-06-24T12:31:22.908Z,48.84
2018-06-24T12:32:23.380Z,48.91
2018-06-24T12:33:23.858Z,48.78
2018-06-24T12:34:24.327Z,49.04
2018-06-24T12:35:24.798Z,48.95
2018-06-24T12:36:25.274Z,48.95
2018-06-24T12:37:25.800Z,48.76
2018-06-24T12:38:26.218Z,48.83
2018-06-24T12:39:26.692Z,48.48
2018-06-24T12:40:27.166Z,49.05
2018-06-24T12:41:27.640Z,48.36
2018-06-24T12:42:28.110Z,48.36
2018-06-24T12:43:28.623Z,48.71
2018-06-24T12:44:29.057Z,49.03
2018-06-24T12:45:29.563Z,48.84
2018-06-24T12:46:30.004Z,48.81
2018-06-24T12:47:30.476Z,48.49
2018-06-24T12:48:30.947Z,48.78
2018-06-24T12:49:31.418Z,48.11
2018-06-24T12:50:31.891Z,48.43
2018-06-24T12:51:32.364Z,47.70
2018-06-24T12:52:32.836Z,47.57
2018-06-24T12:53:33.309Z,48.34
2018-06-24T12:54:33.787Z,48.40
2018-06-24T12:55:34.253Z,48.65
2018-06-24T12:56:34.729Z,48.78
2018-06-24T12:57:35.198Z,48.43
2018-06-24T12:58:35.726Z,48.34